York, NE

3:11 AM CST on February 01, 2015 (GMT -0600)
Central Nebraska Regional | Change Station
CLOSE
Current Station
Airport
Location: Grand Island,
Elevation: 1857 ft
Nearby Weather Stations
Active Advisory: Winter Storm Warning Active Notice: Record Report, Local Storm Report

Elev 1857 ft 40.96 °N, 98.31 °W | Updated 18 minutes ago

Snow
Snow
24 °F
Feels Like 7 °F
N
29
Wind Variable Wind from North
Gusts 36 mph

Today
High -- | Low -- °F
--% Chance of Precip.
Yesterday
High -- | Low -- °F
Precip. -- in
7:40 AM 5:47 PM
Waxing Gibbous, 94% visible
Pressure 29.96 in
Visibility 1.0 miles
Clouds Few 700 ft
Overcast 1700 ft
Windchill 7 °F
Dew Point 21 °F
Humidity 88%
Rainfall 0.02 in
Snow Depth Not available.
UV 0 out of 12
Pollen .10 out of 12
Air Quality Not available.
Flu Activity Not available.
METAR KGRI 010853Z AUTO 35025G31KT 1SM R35/P6000FT -SN BR FEW007 OVC017 M04/M06 A2989 RMK AO2 PK WND 35031/0845 SLP145 P0000 60002 T10441061 53012 $

More Conditions Fewer Conditions

Pressure 29.96 in
Visibility 1.0 miles
Clouds Few 700 ft
Overcast 1700 ft
Windchill 7 °F
Dew Point 21 °F
Humidity 88%
Rainfall 0.02 in
Snow Depth Not available.
UV 0 out of 12
Pollen .10 out of 12
Air Quality Not available.
Flu Activity Not available.
METAR KGRI 010853Z AUTO 35025G31KT 1SM R35/P6000FT -SN BR FEW007 OVC017 M04/M06 A2989 RMK AO2 PK WND 35031/0845 SLP145 P0000 60002 T10441061 53012 $

More Conditions Fewer Conditions

10-Day Weather Forecast

Almanac

Astronomy

Feb. 01, 2015 Rise Set
Actual Time
Civil Twilight
Nautical Twilight
Astronomical Twilight
Moon
Length of Visible Light
Length of Day
Tomorrow will be .
, % of the Moon is Illuminated

Today's Extremes

State Highs State Lows

Community

WunderPhotos

Upload Photos

1,792,338 photos uploaded!

WunderBlogs® & News

Nearby

Air Quality

  Air Quality AQ Index Pollutant
Not available.

Snow Depth

Station Depth Elevation

Earthquake Activity

City Distance Mag. Time & Date
Minimum magnitude displayed is 2.5.

Coastal Water Temperatures

Place Temperature

Nearby Weather Stations